createdAt,value
2018-09-20T04:21:06.610Z,99.99
2018-09-20T04:22:09.007Z,99.99
2018-09-20T04:23:15.640Z,99.99
2018-09-20T04:24:07.236Z,99.99
2018-09-20T04:25:09.617Z,99.99
2018-09-20T04:30:29.164Z,99.99
2018-09-20T04:33:03.593Z,99.86
2018-09-20T04:35:07.254Z,99.99
2018-09-20T04:48:46.574Z,95.98
2018-09-20T04:58:26.765Z,96.56
2018-09-20T04:59:25.355Z,96.94
2018-09-20T05:00:29.102Z,96.56
2018-09-20T05:01:28.948Z,96.56
2018-09-20T05:02:29.840Z,97.33
2018-09-20T05:03:28.807Z,97.42
2018-09-20T05:04:27.344Z,97.23
2018-09-20T05:05:26.921Z,97.42
2018-09-20T05:06:23.816Z,96.94
2018-09-20T05:07:24.432Z,97.52
2018-09-20T05:08:22.741Z,97.61
2018-09-20T05:09:23.087Z,97.04
2018-09-20T05:10:22.927Z,97.23
2018-09-20T05:11:23.473Z,97.90
2018-09-20T05:14:26.516Z,96.47
2018-09-20T05:15:37.285Z,96.84
2018-09-20T05:16:23.080Z,96.84
2018-09-20T05:17:20.865Z,97.42
2018-09-20T05:18:20.955Z,96.47
2018-09-20T05:19:36.521Z,96.75
2018-09-20T05:23:12.060Z,96.08
2018-09-20T05:24:11.933Z,96.37
2018-09-20T05:25:10.105Z,96.37
2018-09-20T05:26:09.890Z,96.18
2018-09-20T05:27:18.726Z,96.37
2018-09-20T05:29:57.619Z,96.56
2018-09-20T05:31:59.522Z,96.47
2018-09-20T05:32:58.966Z,96.47
2018-09-20T05:34:02.849Z,96.37
2018-09-20T05:34:56.684Z,96.37
2018-09-20T05:35:56.393Z,96.37
2018-09-20T05:36:56.490Z,96.75
2018-09-20T05:37:56.619Z,96.84
2018-09-20T05:38:59.210Z,96.84
2018-09-20T05:39:57.062Z,97.13
2018-09-20T05:41:00.813Z,96.56
2018-09-20T05:41:57.455Z,96.37
2018-09-20T05:42:57.570Z,96.27
2018-09-20T05:43:57.888Z,96.27
2018-09-20T05:45:03.556Z,96.18
2018-09-20T05:46:09.389Z,96.27
2018-09-20T05:47:00.893Z,96.18
2018-09-20T05:48:02.908Z,95.98
2018-09-20T05:49:01.114Z,96.27
2018-09-20T05:49:59.045Z,96.56
2018-09-20T05:50:58.861Z,96.56
2018-09-20T05:52:19.526Z,96.66
2018-09-20T05:53:00.036Z,96.66
2018-09-20T05:54:12.546Z,96.27
2018-09-20T05:56:13.596Z,96.37
2018-09-20T05:57:03.637Z,96.18
2018-09-20T05:58:12.709Z,95.89
2018-09-20T05:59:03.618Z,96.27
2018-09-20T06:01:45.021Z,96.37
2018-09-20T06:02:45.509Z,95.61
2018-09-20T06:03:45.405Z,95.79
2018-09-20T06:04:46.199Z,95.89
2018-09-20T06:05:46.256Z,95.22
2018-09-20T06:06:47.182Z,95.41
2018-09-20T06:07:46.672Z,95.32
2018-09-20T06:08:46.941Z,95.61
2018-09-20T06:09:46.602Z,95.41
2018-09-20T06:10:46.498Z,95.70
2018-09-20T06:11:46.341Z,95.61
2018-09-20T06:12:56.003Z,95.03
2018-09-20T06:13:47.678Z,95.22
2018-09-20T06:14:47.376Z,95.22
2018-09-20T06:15:45.840Z,95.22
2018-09-20T06:16:45.143Z,95.22
2018-09-20T06:17:45.245Z,95.03
2018-09-20T06:18:45.507Z,95.03
2018-09-20T06:19:47.783Z,95.75
2018-09-20T06:20:45.870Z,95.03
2018-09-20T06:22:12.535Z,95.17
2018-09-20T06:22:50.931Z,95.27
2018-09-20T06:23:48.641Z,95.17
2018-09-20T06:24:49.076Z,95.07
2018-09-20T06:25:49.380Z,95.17
2018-09-20T06:26:49.513Z,94.50
2018-09-20T06:28:50.183Z,94.98
2018-09-20T06:29:51.469Z,94.89
2018-09-20T06:30:50.936Z,94.98
2018-09-20T06:31:49.488Z,95.07
2018-09-20T06:32:47.677Z,95.07
2018-09-20T06:33:49.076Z,95.07
2018-09-20T06:34:48.670Z,95.07
2018-09-20T06:38:54.560Z,94.41
2018-09-20T06:39:51.930Z,94.21
2018-09-20T06:42:02.998Z,94.36
2018-09-20T06:42:57.361Z,94.45
2018-09-20T06:44:01.863Z,94.55
2018-09-20T06:49:06.684Z,95.22
2018-09-20T06:50:07.355Z,94.84
2018-09-20T06:51:07.827Z,94.93
2018-09-20T06:53:06.784Z,95.12
2018-09-20T06:54:06.675Z,95.03
2018-09-20T06:55:06.682Z,95.12
2018-09-20T06:56:07.398Z,94.93
2018-09-20T06:57:08.187Z,94.74
2018-09-20T06:58:08.776Z,95.03
2018-09-20T06:59:07.215Z,95.03
2018-09-20T07:00:09.765Z,94.93
2018-09-20T07:01:11.712Z,94.45
2018-09-20T07:02:08.053Z,94.17
2018-09-20T07:03:11.667Z,94.17
2018-09-20T07:04:10.421Z,94.36
2018-09-20T07:05:15.021Z,94.07
2018-09-20T07:07:11.333Z,93.83
2018-09-20T07:09:09.298Z,93.35
2018-09-20T07:10:09.912Z,93.26
2018-09-20T07:13:20.332Z,93.35
2018-09-20T07:19:41.792Z,93.21
2018-09-20T07:23:02.790Z,92.54
2018-09-20T07:24:10.748Z,92.30
2018-09-20T07:28:39.582Z,91.00
2018-09-20T07:34:49.287Z,82.04
2018-09-20T07:35:52.734Z,80.54
2018-09-20T07:46:09.677Z,67.40
2018-09-20T08:06:17.226Z,56.07
2018-09-20T08:06:42.246Z,55.58
2018-09-20T08:10:21.151Z,53.79
2018-09-20T08:10:44.805Z,53.99
2018-09-20T08:16:15.636Z,52.76
2018-09-20T08:17:22.194Z,54.22
2018-09-20T08:19:16.418Z,53.18
2018-09-20T08:29:27.946Z,49.02
2018-09-20T08:30:24.975Z,48.36
2018-09-20T08:41:32.527Z,49.27
2018-09-20T08:42:28.630Z,49.76
2018-09-20T08:43:20.728Z,50.53
2018-09-20T08:44:21.294Z,50.16
2018-09-20T08:45:18.927Z,49.22
2018-09-20T08:46:19.035Z,48.34
2018-09-20T08:47:19.061Z,47.78
2018-09-20T08:48:19.174Z,47.31
2018-09-20T08:49:19.436Z,45.97
2018-09-20T08:50:19.602Z,46.00
2018-09-20T08:51:19.787Z,46.19
2018-09-20T08:52:19.912Z,45.72
2018-09-20T08:53:20.067Z,44.48
2018-09-20T08:54:20.748Z,44.20
2018-09-20T08:55:21.097Z,43.42
2018-09-20T08:56:23.426Z,43.71
2018-09-20T08:57:22.965Z,44.01
2018-09-20T08:58:21.141Z,43.05
2018-09-20T08:59:21.363Z,42.93
2018-09-20T09:00:21.565Z,42.85
2018-09-20T09:01:21.889Z,41.97
2018-09-20T09:02:22.666Z,42.78
2018-09-20T09:03:22.967Z,41.41
2018-09-20T09:04:23.783Z,41.49
2018-09-20T09:05:22.706Z,41.78
2018-09-20T09:06:22.348Z,42.64
2018-09-20T09:07:29.585Z,43.10
2018-09-20T09:08:24.035Z,43.49
2018-09-20T09:09:24.518Z,43.20
2018-09-20T09:14:06.290Z,41.19
2018-09-20T09:15:04.448Z,41.68
2018-09-20T09:20:07.130Z,41.39
2018-09-20T09:25:23.743Z,42.66
2018-09-20T09:31:32.256Z,40.21
2018-09-20T09:33:33.169Z,39.64
2018-09-20T10:02:06.594Z,35.33
2018-09-20T10:02:59.002Z,35.85
2018-09-20T10:04:00.107Z,36.45
2018-09-20T10:04:59.144Z,36.53
2018-09-20T10:05:59.334Z,37.00
2018-09-20T10:06:59.559Z,37.29
2018-09-20T10:07:59.649Z,37.31
2018-09-20T10:08:59.942Z,36.96
2018-09-20T10:10:00.015Z,35.91
2018-09-20T10:11:00.394Z,35.44
2018-09-20T10:12:00.431Z,33.98
2018-09-20T10:13:01.654Z,33.58
2018-09-20T10:15:35.742Z,34.23
2018-09-20T10:16:36.227Z,34.46
2018-09-20T10:17:34.204Z,33.97
2018-09-20T10:18:34.411Z,34.05
2018-09-20T10:21:16.713Z,34.52
2018-09-20T10:22:22.254Z,34.25
2018-09-20T10:23:22.071Z,33.87
2018-09-20T10:24:18.282Z,33.69
2018-09-20T10:25:17.273Z,33.69
2018-09-20T10:26:17.431Z,32.72
2018-09-20T10:27:17.616Z,33.31
2018-09-20T10:28:17.908Z,32.84
2018-09-20T10:29:18.046Z,32.34
2018-09-20T10:30:18.204Z,31.67
2018-09-20T10:31:18.494Z,32.15
2018-09-20T10:32:18.543Z,32.17
2018-09-20T10:33:18.759Z,31.77
2018-09-20T10:34:19.084Z,32.05
2018-09-20T10:35:19.123Z,32.24
2018-09-20T10:36:19.274Z,31.95
2018-09-20T10:37:20.179Z,31.64
2018-09-20T10:38:19.854Z,32.30
2018-09-20T10:39:40.347Z,32.12
2018-09-20T10:40:51.604Z,32.02
2018-09-20T10:41:37.756Z,31.73
2018-09-20T10:44:30.988Z,31.04
2018-09-20T10:45:59.043Z,31.53
2018-09-20T10:48:24.687Z,30.19
2018-09-20T10:49:22.539Z,30.38
2018-09-20T10:50:21.933Z,31.04
2018-09-20T10:51:21.890Z,31.81
2018-09-20T10:52:25.177Z,31.73
2018-09-20T10:53:22.265Z,32.04
2018-09-20T10:54:22.466Z,31.36
2018-09-20T10:57:19.810Z,30.03
2018-09-20T11:00:31.953Z,28.77
2018-09-20T11:02:32.370Z,29.27
2018-09-20T11:02:53.402Z,29.25
2018-09-20T11:03:32.543Z,28.08
2018-09-20T11:04:32.754Z,29.06
2018-09-20T11:05:32.824Z,28.85
2018-09-20T11:06:33.085Z,28.75
2018-09-20T11:07:34.357Z,28.85
2018-09-20T11:10:19.079Z,27.78
2018-09-20T11:11:23.676Z,28.86
2018-09-20T11:12:18.210Z,28.95
2018-09-20T11:13:18.198Z,28.86
2018-09-20T11:14:18.407Z,29.05
2018-09-20T11:15:18.608Z,29.52
2018-09-20T11:16:19.548Z,28.54
2018-09-20T11:17:19.484Z,28.66
2018-09-20T11:18:19.150Z,27.87
2018-09-20T11:19:19.399Z,27.86
2018-09-20T11:20:19.511Z,28.36
2018-09-20T11:21:19.776Z,28.64
2018-09-20T11:22:19.884Z,28.23
2018-09-20T11:23:20.091Z,28.65
2018-09-20T11:24:20.255Z,28.75
2018-09-20T11:25:20.432Z,27.86
2018-09-20T11:26:20.788Z,28.38
2018-09-20T11:27:31.373Z,27.61
2018-09-20T11:28:22.829Z,27.51
2018-09-20T11:30:21.382Z,28.37
2018-09-20T11:31:21.837Z,27.78
2018-09-20T11:32:21.719Z,27.58
2018-09-20T11:33:21.940Z,27.87
2018-09-20T11:34:22.184Z,27.58
2018-09-20T11:35:22.307Z,27.87
2018-09-20T11:36:22.570Z,27.68
2018-09-20T11:37:22.569Z,26.62
2018-09-20T11:38:23.005Z,26.92
2018-09-20T11:39:24.120Z,26.13
2018-09-20T11:41:23.395Z,26.42
2018-09-20T11:42:23.604Z,26.51
2018-09-20T11:43:23.940Z,27.27
2018-09-20T11:44:24.113Z,26.81
2018-09-20T11:45:24.261Z,26.71
2018-09-20T11:46:24.369Z,26.54
2018-09-20T11:47:24.552Z,26.25
2018-09-20T11:48:24.940Z,26.24
2018-09-20T11:49:25.035Z,24.57
2018-09-20T11:50:25.276Z,25.08
2018-09-20T11:51:25.430Z,24.56
2018-09-20T11:52:25.672Z,24.67
2018-09-20T11:53:26.463Z,25.65
2018-09-20T11:54:25.892Z,25.73
2018-09-20T11:55:26.265Z,25.54
2018-09-20T11:56:26.318Z,25.63
2018-09-20T11:57:26.512Z,25.63
2018-09-20T11:58:26.766Z,25.45
2018-09-20T11:59:27.084Z,25.46
2018-09-20T12:00:27.020Z,24.50
2018-09-20T12:01:27.379Z,24.52
2018-09-20T12:02:27.513Z,24.72
2018-09-20T12:03:27.676Z,24.32
2018-09-20T12:04:27.788Z,23.61
2018-09-20T12:05:28.148Z,24.38
2018-09-20T12:06:28.276Z,24.97
2018-09-20T12:07:29.073Z,25.55
2018-09-20T12:08:28.694Z,25.34
2018-09-20T12:09:28.838Z,25.24
2018-09-20T12:10:29.229Z,25.72
2018-09-20T12:11:29.122Z,25.73
2018-09-20T12:12:29.452Z,25.34
2018-09-20T12:13:29.504Z,24.87
2018-09-20T12:14:31.193Z,24.86
2018-09-20T12:15:29.771Z,25.08
2018-09-20T12:16:30.829Z,24.49
2018-09-20T12:17:30.239Z,23.70
2018-09-20T12:18:30.422Z,23.90
2018-09-20T12:19:30.567Z,24.19
2018-09-20T12:20:30.852Z,24.38
2018-09-20T12:23:34.968Z,24.20
2018-09-20T12:24:29.804Z,24.68
2018-09-20T12:25:34.635Z,23.72
2018-09-20T12:26:27.139Z,23.54
2018-09-20T12:27:27.369Z,23.73
2018-09-20T12:28:27.544Z,22.26
2018-09-20T12:29:27.745Z,22.67
2018-09-20T12:30:27.907Z,21.96
2018-09-20T12:31:28.124Z,22.15
2018-09-20T12:32:28.192Z,22.63
2018-09-20T12:33:28.461Z,23.79
2018-09-20T12:34:28.660Z,23.49
2018-09-20T12:35:28.793Z,23.30
2018-09-20T12:36:28.971Z,23.00
2018-09-20T12:37:29.128Z,23.28
2018-09-20T12:38:29.588Z,23.38
2018-09-20T12:39:29.794Z,22.99
2018-09-20T12:40:29.757Z,22.69
2018-09-20T12:41:29.920Z,22.96
2018-09-20T12:42:30.221Z,23.55
2018-09-20T12:53:48.599Z,23.10
2018-09-20T12:55:52.084Z,21.23
2018-09-20T13:04:04.825Z,23.24
2018-09-20T13:52:11.967Z,19.85
2018-09-20T13:53:03.261Z,19.66
2018-09-20T13:54:03.225Z,19.18
2018-09-20T13:55:03.378Z,18.88
2018-09-20T13:56:03.721Z,18.88
2018-09-20T13:57:04.357Z,18.90
2018-09-20T13:58:05.341Z,18.90
2018-09-20T14:05:26.275Z,19.26
2018-09-20T14:06:23.722Z,19.17
2018-09-20T14:07:23.803Z,18.68
2018-09-20T14:08:23.904Z,18.68
2018-09-20T14:09:37.285Z,18.37
2018-09-20T14:10:28.792Z,18.48
2018-09-20T14:11:26.749Z,18.48
2018-09-20T14:12:24.626Z,18.49
2018-09-20T14:13:24.789Z,18.59
2018-09-20T14:14:24.993Z,18.88
2018-09-20T14:15:25.212Z,18.58
2018-09-20T14:16:25.328Z,18.88
2018-09-20T14:17:25.558Z,18.58
2018-09-20T14:18:25.641Z,18.88
2018-09-20T14:19:25.811Z,19.09
2018-09-20T14:20:26.053Z,18.60
2018-09-20T14:21:26.288Z,18.12
2018-09-20T14:22:27.304Z,18.02
2018-09-20T14:23:26.676Z,18.13
2018-09-20T14:24:28.037Z,17.73
2018-09-20T14:25:26.968Z,18.23
2018-09-20T14:26:27.188Z,18.13
2018-09-20T14:27:27.273Z,18.23
2018-09-20T14:28:27.538Z,18.02
2018-09-20T14:29:27.762Z,18.61
2018-09-20T14:30:27.827Z,18.71
2018-09-20T14:31:28.018Z,18.90
2018-09-20T14:32:28.238Z,18.60
2018-09-20T14:33:28.452Z,18.12
2018-09-20T14:34:28.624Z,18.60
2018-09-20T14:35:28.733Z,18.10
2018-09-20T14:36:28.966Z,17.79
2018-09-20T14:37:29.095Z,18.37
2018-09-20T14:38:29.335Z,18.87
2018-09-20T14:39:29.959Z,19.06
2018-09-20T14:40:29.688Z,19.64
2018-09-20T14:41:29.891Z,20.52
2018-09-20T14:42:30.014Z,21.31
2018-09-20T14:43:30.429Z,21.39
2018-09-20T14:44:30.362Z,21.37
2018-09-20T14:45:30.648Z,21.84
2018-09-20T14:46:30.781Z,22.41
2018-09-20T14:47:30.999Z,23.97
2018-09-20T14:48:31.181Z,24.64
2018-09-20T14:49:31.354Z,24.60
2018-09-20T14:50:32.623Z,25.49
2018-09-20T14:51:31.753Z,25.94
2018-09-20T14:52:31.952Z,26.33
2018-09-20T14:53:32.078Z,26.51
2018-09-20T14:54:32.282Z,27.00
2018-09-20T14:55:32.463Z,27.38
2018-09-20T14:56:32.633Z,28.06
2018-09-20T14:57:32.795Z,27.66
2018-09-20T14:58:33.184Z,28.33
2018-09-20T14:59:33.171Z,28.23
2018-09-20T15:00:33.682Z,28.33
2018-09-20T15:01:33.441Z,28.32
2018-09-20T15:02:33.799Z,28.32
2018-09-20T15:03:33.930Z,28.91
2018-09-20T15:04:34.024Z,29.57
2018-09-20T15:05:34.286Z,29.77
2018-09-20T15:06:34.885Z,29.66
2018-09-20T15:07:34.987Z,29.85
2018-09-20T15:08:34.823Z,30.05
2018-09-20T15:09:34.965Z,30.15
2018-09-20T15:12:58.956Z,29.00
2018-09-20T15:13:28.168Z,29.02
2018-09-20T15:15:11.178Z,28.33
2018-09-20T15:16:33.342Z,28.72
2018-09-20T15:17:28.422Z,28.52
2018-09-20T15:20:25.502Z,29.86
2018-09-20T15:21:21.410Z,29.36
2018-09-20T15:22:21.120Z,29.36
2018-09-20T15:23:21.306Z,29.57
2018-09-20T15:24:21.444Z,29.86
2018-09-20T15:25:21.668Z,29.77
2018-09-20T15:26:21.879Z,29.56
2018-09-20T15:27:21.967Z,30.63
2018-09-20T15:28:22.159Z,30.81
2018-09-20T15:29:22.385Z,30.81
2018-09-20T15:30:22.512Z,31.40
2018-09-20T15:31:22.776Z,31.20
2018-09-20T15:32:22.920Z,31.28
2018-09-20T15:33:23.202Z,31.87
2018-09-20T15:34:23.394Z,31.77
2018-09-20T15:35:23.553Z,32.26
2018-09-20T15:36:23.668Z,32.16
2018-09-20T15:37:23.886Z,32.18
2018-09-20T15:38:24.072Z,32.67
2018-09-20T15:39:24.347Z,32.06
2018-09-20T15:40:24.473Z,32.26
2018-09-20T15:41:24.563Z,32.55
2018-09-20T15:42:24.824Z,33.12
2018-09-20T15:43:24.997Z,33.31
2018-09-20T15:44:25.205Z,33.92
2018-09-20T15:45:25.305Z,34.01
2018-09-20T15:46:25.535Z,33.72
2018-09-20T15:47:25.612Z,33.62
2018-09-20T15:48:25.857Z,33.53
2018-09-20T15:49:25.959Z,33.43
2018-09-20T15:50:26.100Z,34.21
2018-09-20T15:51:26.296Z,33.82
2018-09-20T15:52:26.495Z,33.92
2018-09-20T15:53:26.698Z,33.62
2018-09-20T15:54:26.827Z,33.90
2018-09-20T15:55:27.036Z,34.00
2018-09-20T15:56:27.289Z,34.19
2018-09-20T15:57:27.455Z,34.48
2018-09-20T15:58:27.889Z,33.90
2018-09-20T15:59:27.767Z,34.19
2018-09-20T16:00:27.968Z,34.00
2018-09-20T16:01:28.211Z,34.78
2018-09-20T16:02:28.437Z,35.16
2018-09-20T16:03:28.498Z,34.29
2018-09-20T16:04:28.759Z,34.78
2018-09-20T16:05:28.951Z,34.95
2018-09-20T16:06:29.180Z,35.05
2018-09-20T16:07:29.270Z,35.15
2018-09-20T16:08:29.611Z,35.44
2018-09-20T16:09:29.707Z,35.25
2018-09-20T16:10:29.925Z,35.44
2018-09-20T16:11:30.039Z,35.34
2018-09-20T16:12:30.136Z,35.63
2018-09-20T16:13:30.323Z,35.63
2018-09-20T16:14:30.565Z,34.86
2018-09-20T16:15:30.694Z,35.05
2018-09-20T16:16:30.888Z,34.35
2018-09-20T16:17:31.093Z,34.45
2018-09-20T16:18:34.033Z,34.35
2018-09-20T16:19:34.319Z,33.58
2018-09-20T16:20:32.799Z,34.94
2018-09-20T16:21:32.240Z,35.52
2018-09-20T16:22:31.877Z,35.52
2018-09-20T16:46:22.747Z,34.12
2018-09-20T16:47:25.892Z,34.80
2018-09-20T16:48:30.948Z,35.08
2018-09-20T16:49:28.090Z,35.19
2018-09-20T16:55:27.903Z,34.79
2018-09-20T16:56:33.148Z,34.20
2018-09-20T17:20:08.120Z,37.65
2018-09-20T17:22:53.460Z,37.35
2018-09-20T17:23:49.931Z,36.87
2018-09-20T17:24:56.205Z,38.21
2018-09-20T17:26:17.661Z,39.95
2018-09-20T17:27:01.913Z,38.99
2018-09-20T17:27:51.374Z,38.50
2018-09-20T17:29:55.735Z,38.12
2018-09-20T17:30:54.200Z,38.58
2018-09-20T17:31:58.496Z,38.50
2018-09-20T17:32:52.000Z,38.68
2018-09-20T17:33:49.949Z,39.55
2018-09-20T17:36:54.640Z,38.96
2018-09-20T17:37:54.157Z,39.06
2018-09-20T17:38:53.028Z,40.03
2018-09-20T17:40:58.150Z,40.31
2018-09-20T17:41:53.937Z,40.79
2018-09-20T17:43:02.431Z,41.66
2018-09-20T17:58:12.290Z,44.60
2018-09-20T19:52:07.633Z,61.71
2018-09-20T19:53:05.272Z,61.23
2018-09-20T19:57:01.989Z,61.91
2018-09-20T20:52:22.601Z,68.12
